Time;durP1;ratioP1;P1;durP2;ratioP2;P2;SDS_P1;SDS_P2;PMS_P1;PMS_P2;Temp;Humidity;BMP_temperature;BMP_pressure;BME280_temperature;BME280_humidity;BME280_pressure;Samples;Min_cycle;Max_cycle;Signal;HPM_P1;HPM_P2
2022/04/13 00:02:48;;;;;;;4.90;4.10;;;11.60;99.90;;;;;;4995778;28;20492;-70
2022/04/13 00:05:36;;;;;;;5.53;3.63;;;11.60;99.90;;;;;;5000945;28;20464;-70
2022/04/13 00:08:24;;;;;;;6.00;4.87;;;11.60;99.90;;;;;;4997099;28;21061;-69
2022/04/13 00:11:13;;;;;;;4.50;4.10;;;11.60;99.90;;;;;;5001750;28;20603;-70
2022/04/13 00:14:02;;;;;;;4.50;3.87;;;11.60;99.90;;;;;;5002973;28;20530;-70
2022/04/13 00:16:54;;;;;;;4.93;4.20;;;11.60;99.90;;;;;;5000083;28;20551;-70
2022/04/13 00:19:42;;;;;;;5.33;4.67;;;11.60;99.90;;;;;;4998527;28;20484;-69
2022/04/13 00:22:30;;;;;;;4.70;4.30;;;11.50;99.90;;;;;;4999386;28;20561;-69
2022/04/13 00:25:19;;;;;;;5.30;4.10;;;11.40;99.90;;;;;;4995777;28;20456;-70
2022/04/13 00:28:10;;;;;;;4.33;3.80;;;11.40;99.90;;;;;;4999604;28;20835;-69
2022/04/13 00:30:58;;;;;;;4.67;4.17;;;11.40;99.90;;;;;;5002237;28;20544;-69
2022/04/13 00:33:47;;;;;;;5.10;4.70;;;11.40;99.90;;;;;;4997328;28;20553;-70
2022/04/13 00:36:35;;;;;;;5.57;4.60;;;11.40;99.90;;;;;;5003212;28;20558;-68
2022/04/13 00:39:24;;;;;;;4.70;4.30;;;11.40;99.90;;;;;;4998657;28;20996;-69
2022/04/13 00:42:12;;;;;;;4.60;4.13;;;11.30;99.90;;;;;;4998478;28;21238;-68
2022/04/13 00:45:00;;;;;;;4.77;4.20;;;11.30;99.90;;;;;;4999878;28;20456;-69
2022/04/13 00:47:49;;;;;;;4.90;4.37;;;11.40;99.90;;;;;;4995890;28;20491;-68
2022/04/13 00:50:38;;;;;;;5.00;4.50;;;11.30;99.90;;;;;;4997981;28;20544;-69
2022/04/13 00:53:32;;;;;;;5.47;4.40;;;11.30;99.90;;;;;;4996718;28;20472;-69
2022/04/13 00:56:23;;;;;;;4.73;4.33;;;11.30;99.90;;;;;;4999684;28;20504;-69
2022/04/13 00:59:14;;;;;;;5.43;4.93;;;11.30;99.90;;;;;;4999063;28;20535;-69
2022/04/13 01:02:03;;;;;;;5.47;4.80;;;11.30;99.90;;;;;;4999325;28;20823;-69
2022/04/13 01:04:52;;;;;;;5.57;4.97;;;11.20;99.90;;;;;;4999751;28;20964;-69
2022/04/13 01:07:42;;;;;;;4.50;4.10;;;11.20;99.90;;;;;;5000929;28;20611;-69
2022/04/13 01:10:30;;;;;;;6.87;5.00;;;11.20;99.90;;;;;;4998921;28;20449;-69
2022/04/13 01:13:20;;;;;;;5.10;4.60;;;11.20;99.90;;;;;;4996213;28;20573;-68
2022/04/13 01:16:08;;;;;;;5.10;4.60;;;11.20;99.90;;;;;;4998680;28;20496;-69
2022/04/13 01:18:56;;;;;;;6.00;5.50;;;11.20;99.90;;;;;;4996436;28;20557;-69
2022/04/13 01:21:47;;;;;;;6.40;5.80;;;11.10;99.90;;;;;;5000904;28;20840;-69
2022/04/13 01:24:37;;;;;;;4.77;4.37;;;11.10;99.90;;;;;;4997602;28;20920;-69
2022/04/13 01:27:26;;;;;;;5.80;4.90;;;11.10;99.90;;;;;;5000304;28;20805;-69
2022/04/13 01:30:15;;;;;;;5.30;4.80;;;11.10;99.90;;;;;;4999736;28;20535;-69
2022/04/13 01:33:04;;;;;;;5.40;4.90;;;11.10;99.90;;;;;;4999267;28;20829;-69
2022/04/13 01:35:52;;;;;;;4.73;4.33;;;11.10;99.90;;;;;;5002608;28;20491;-69
2022/04/13 01:38:40;;;;;;;5.50;5.00;;;11.10;99.90;;;;;;4995429;28;20477;-68
2022/04/13 01:41:30;;;;;;;6.10;5.50;;;11.10;99.90;;;;;;4999865;28;20487;-69
2022/04/13 01:44:18;;;;;;;6.70;5.83;;;11.00;99.90;;;;;;4996833;28;20566;-69
2022/04/13 01:47:06;;;;;;;6.03;5.13;;;11.00;99.90;;;;;;4996196;28;21584;-69
2022/04/13 01:49:55;;;;;;;8.47;5.60;;;11.00;99.90;;;;;;4997848;28;20563;-69
2022/04/13 01:52:43;;;;;;;5.00;4.50;;;11.00;99.90;;;;;;4997582;28;20836;-69
2022/04/13 01:55:32;;;;;;;5.90;5.13;;;11.00;99.90;;;;;;4988808;28;20591;-69
2022/04/13 01:58:21;;;;;;;5.87;5.13;;;11.00;99.90;;;;;;5000099;28;20627;-69
2022/04/13 02:01:10;;;;;;;5.93;5.43;;;11.00;99.90;;;;;;4997711;28;20464;-69
2022/04/13 02:03:58;;;;;;;5.63;5.13;;;11.00;99.90;;;;;;4998271;28;20484;-69
2022/04/13 02:06:46;;;;;;;6.23;5.50;;;10.90;99.90;;;;;;4997219;28;20453;-69
2022/04/13 02:09:34;;;;;;;6.00;5.13;;;10.90;99.90;;;;;;4999688;28;20920;-69
2022/04/13 02:12:23;;;;;;;6.13;5.53;;;10.90;99.90;;;;;;5001481;28;20463;-69
2022/04/13 02:15:12;;;;;;;6.00;5.20;;;10.90;99.90;;;;;;5003915;28;20456;-70
2022/04/13 02:18:00;;;;;;;5.60;5.03;;;10.90;99.90;;;;;;5001891;28;20484;-69
2022/04/13 02:20:48;;;;;;;6.00;5.40;;;10.90;99.90;;;;;;5003762;28;21190;-70
2022/04/13 02:23:36;;;;;;;6.03;5.00;;;10.80;99.90;;;;;;5004781;28;20495;-70
2022/04/13 02:26:25;;;;;;;6.10;5.50;;;10.80;99.90;;;;;;5003426;28;20456;-70
2022/04/13 02:29:14;;;;;;;6.70;5.47;;;10.80;99.90;;;;;;4999831;28;20529;-69
2022/04/13 02:32:04;;;;;;;6.13;5.47;;;10.80;99.90;;;;;;5003199;28;20908;-70
2022/04/13 02:34:53;;;;;;;6.40;5.63;;;10.80;99.90;;;;;;5003068;28;20488;-70
2022/04/13 02:37:42;;;;;;;5.53;4.53;;;10.70;99.90;;;;;;5007208;28;20621;-70
2022/04/13 02:40:30;;;;;;;6.40;5.50;;;10.70;99.90;;;;;;5002060;28;22401;-70
2022/04/13 02:43:18;;;;;;;5.57;5.07;;;10.70;99.90;;;;;;5001471;28;20623;-70
2022/04/13 02:46:07;;;;;;;6.40;5.80;;;10.70;99.90;;;;;;5004440;28;20590;-70
2022/04/13 02:48:56;;;;;;;6.30;5.70;;;10.70;99.90;;;;;;5001379;28;20979;-68
2022/04/13 02:51:44;;;;;;;7.67;5.67;;;10.70;99.90;;;;;;5004561;28;20490;-69
2022/04/13 02:54:33;;;;;;;6.87;5.50;;;10.70;99.90;;;;;;5002928;28;21109;-69
2022/04/13 02:57:21;;;;;;;5.37;4.87;;;10.70;99.90;;;;;;5001215;28;20544;-70
2022/04/13 03:00:10;;;;;;;7.23;5.43;;;10.70;99.90;;;;;;5000949;28;20844;-70
2022/04/13 03:02:58;;;;;;;6.83;5.40;;;10.70;99.90;;;;;;5001890;28;20485;-69
2022/04/13 03:05:48;;;;;;;5.80;5.23;;;10.70;99.90;;;;;;5004316;28;20472;-70
2022/04/13 03:08:36;;;;;;;7.77;5.70;;;10.60;99.90;;;;;;5002791;28;20522;-70
2022/04/13 03:11:24;;;;;;;6.13;5.53;;;10.60;99.90;;;;;;5002179;28;20596;-70
2022/04/13 03:14:12;;;;;;;6.93;6.33;;;10.70;99.90;;;;;;5004573;28;20519;-70
2022/04/13 03:17:00;;;;;;;6.60;5.33;;;10.70;99.90;;;;;;5000385;28;20690;-70
2022/04/13 03:19:49;;;;;;;6.10;5.50;;;10.60;99.90;;;;;;4998875;28;20565;-70
2022/04/13 03:22:38;;;;;;;6.40;5.80;;;10.60;99.90;;;;;;5001551;28;20602;-70
2022/04/13 03:25:27;;;;;;;7.00;6.10;;;10.60;99.90;;;;;;5005233;28;20542;-70
2022/04/13 03:28:16;;;;;;;6.97;5.47;;;10.60;99.90;;;;;;5000414;28;20877;-71
2022/04/13 03:31:04;;;;;;;6.10;5.50;;;10.60;99.90;;;;;;5003085;28;20456;-70
2022/04/13 03:33:52;;;;;;;6.70;6.00;;;10.60;99.90;;;;;;5001119;28;20591;-70
2022/04/13 03:36:40;;;;;;;7.10;6.20;;;10.60;99.90;;;;;;5003787;28;20823;-70
2022/04/13 03:39:30;;;;;;;6.53;5.93;;;10.60;99.90;;;;;;5001142;28;20476;-71
2022/04/13 03:42:18;;;;;;;6.37;5.27;;;10.60;99.90;;;;;;5000828;28;20566;-68
2022/04/13 03:45:09;;;;;;;5.97;5.33;;;10.60;99.90;;;;;;5003697;28;20504;-68
2022/04/13 03:47:57;;;;;;;7.33;6.27;;;10.60;99.90;;;;;;5000918;28;20577;-69
2022/04/13 03:50:45;;;;;;;6.53;5.93;;;10.60;99.90;;;;;;5004143;28;20519;-69
2022/04/13 03:53:33;;;;;;;7.50;5.63;;;10.60;99.90;;;;;;4998559;28;20605;-69
2022/04/13 03:56:22;;;;;;;7.30;6.20;;;10.60;99.90;;;;;;5002651;28;20550;-69
2022/04/13 03:59:11;;;;;;;7.43;5.83;;;10.60;99.90;;;;;;4999735;28;20472;-69
2022/04/13 04:01:59;;;;;;;7.37;6.20;;;10.60;99.90;;;;;;5001585;28;21003;-69
2022/04/13 04:04:47;;;;;;;6.50;5.90;;;10.60;99.90;;;;;;4996632;28;20558;-69
2022/04/13 04:07:35;;;;;;;6.97;6.17;;;10.50;99.90;;;;;;4995052;28;20495;-69
2022/04/13 04:10:23;;;;;;;7.40;6.27;;;10.60;99.90;;;;;;4997575;28;21369;-69
2022/04/13 04:13:12;;;;;;;7.33;6.03;;;10.50;99.90;;;;;;4996474;28;20492;-69
2022/04/13 04:16:01;;;;;;;8.30;6.83;;;10.50;99.90;;;;;;5001031;28;20456;-69
2022/04/13 04:18:50;;;;;;;6.50;5.90;;;10.50;99.90;;;;;;4993051;28;20473;-69
2022/04/13 04:21:38;;;;;;;6.80;6.10;;;10.50;99.90;;;;;;5001545;28;20582;-69
2022/04/13 04:24:27;;;;;;;7.20;6.50;;;10.50;99.90;;;;;;5000854;28;20524;-69
2022/04/13 04:27:15;;;;;;;7.53;6.70;;;10.50;99.90;;;;;;5001371;28;20460;-69
2022/04/13 04:30:05;;;;;;;6.90;6.27;;;10.40;99.90;;;;;;5002389;28;20804;-69
2022/04/13 04:32:56;;;;;;;7.33;6.27;;;10.40;99.90;;;;;;5001206;28;20560;-69
2022/04/13 04:35:47;;;;;;;7.00;6.30;;;10.40;99.90;;;;;;5003308;28;20480;-69
2022/04/13 04:38:35;;;;;;;7.87;6.60;;;10.40;99.90;;;;;;4997036;28;20551;-69
2022/04/13 04:41:23;;;;;;;7.93;6.40;;;10.40;99.90;;;;;;4993211;28;21038;-69
2022/04/13 04:44:12;;;;;;;6.97;5.80;;;10.30;99.90;;;;;;4997149;28;20575;-69
2022/04/13 04:47:01;;;;;;;7.20;6.27;;;10.30;99.90;;;;;;4993534;28;20980;-69
2022/04/13 04:49:50;;;;;;;6.83;6.00;;;10.30;99.90;;;;;;4999595;28;21029;-69
2022/04/13 04:52:41;;;;;;;7.77;6.50;;;10.30;99.90;;;;;;4993484;28;20607;-69
2022/04/13 04:55:31;;;;;;;8.17;6.83;;;10.30;99.90;;;;;;4990711;28;20897;-69
2022/04/13 04:58:19;;;;;;;7.40;6.70;;;10.20;99.90;;;;;;4997967;28;20493;-69
2022/04/13 05:01:07;;;;;;;7.20;6.60;;;10.20;99.90;;;;;;4987185;28;20823;-69
2022/04/13 05:03:57;;;;;;;7.30;6.60;;;10.20;99.90;;;;;;4995291;28;20606;-69
2022/04/13 05:06:45;;;;;;;8.60;6.57;;;10.20;99.90;;;;;;4997037;28;20565;-70
2022/04/13 05:09:33;;;;;;;10.23;7.00;;;10.20;99.90;;;;;;4995880;28;21040;-70
2022/04/13 05:12:23;;;;;;;7.67;6.87;;;10.20;99.90;;;;;;4998209;28;20453;-71
2022/04/13 05:15:11;;;;;;;8.90;7.10;;;10.20;99.90;;;;;;4997164;28;21050;-70
2022/04/13 05:18:00;;;;;;;9.10;7.13;;;10.20;99.90;;;;;;4996261;28;20488;-70
2022/04/13 05:20:49;;;;;;;7.77;7.00;;;10.20;99.90;;;;;;4983974;28;22403;-70
2022/04/13 05:23:37;;;;;;;8.20;6.43;;;10.20;99.90;;;;;;4987623;28;21019;-70
2022/04/13 05:26:25;;;;;;;7.90;7.07;;;10.20;99.90;;;;;;4993743;28;20503;-70
2022/04/13 05:29:13;;;;;;;7.40;6.53;;;10.20;99.90;;;;;;5000471;28;20831;-70
2022/04/13 05:32:02;;;;;;;8.67;7.60;;;10.20;99.90;;;;;;4996575;28;20455;-70
2022/04/13 05:34:59;;;;;;;9.70;6.80;;;10.20;99.90;;;;;;4986954;28;20476;-70
2022/04/13 05:37:49;;;;;;;7.53;6.80;;;10.30;99.90;;;;;;4989284;28;20554;-70
2022/04/13 05:40:37;;;;;;;8.70;7.60;;;10.20;99.90;;;;;;4997832;28;20463;-70
2022/04/13 05:43:28;;;;;;;10.73;7.67;;;10.20;99.90;;;;;;4997974;28;20976;-70
2022/04/13 05:46:16;;;;;;;8.43;7.20;;;10.30;99.90;;;;;;4996354;28;20484;-70
2022/04/13 05:49:05;;;;;;;9.90;7.33;;;10.30;99.90;;;;;;5002736;28;20491;-70
2022/04/13 05:51:53;;;;;;;7.67;6.90;;;10.30;99.90;;;;;;5004112;28;20543;-69
2022/04/13 05:54:43;;;;;;;9.90;7.20;;;10.30;99.90;;;;;;5005471;28;20936;-70
2022/04/13 05:57:31;;;;;;;7.10;6.40;;;10.30;99.90;;;;;;5004111;28;20865;-70
2022/04/13 06:00:19;;;;;;;10.47;6.87;;;10.30;99.90;;;;;;5001628;28;20607;-70
2022/04/13 06:03:08;;;;;;;9.97;7.43;;;10.30;99.90;;;;;;5003156;28;20747;-70
2022/04/13 06:06:15;;;;;;;8.00;7.30;;;10.30;99.90;;;;;;5006147;28;20920;-71
2022/04/13 06:09:03;;;;;;;9.30;7.43;;;10.40;99.90;;;;;;5005640;28;20483;-70
2022/04/13 06:11:53;;;;;;;8.90;7.77;;;10.40;99.90;;;;;;5004027;28;20522;-70
2022/04/13 06:14:41;;;;;;;8.20;7.40;;;10.40;99.90;;;;;;5004977;28;20496;-70
2022/04/13 06:17:29;;;;;;;8.70;7.80;;;10.40;99.90;;;;;;5001161;28;20522;-70
2022/04/13 06:20:17;;;;;;;8.77;7.27;;;10.40;99.90;;;;;;5005398;28;20488;-70
2022/04/13 06:23:06;;;;;;;8.80;7.90;;;10.40;99.90;;;;;;5004046;28;21127;-70
2022/04/13 06:25:54;;;;;;;8.20;7.23;;;10.40;99.90;;;;;;5001391;28;20591;-70
2022/04/13 06:28:43;;;;;;;8.70;7.17;;;10.40;99.90;;;;;;4995439;28;20619;-69
2022/04/13 06:31:32;;;;;;;10.43;8.17;;;10.50;99.90;;;;;;4995817;28;20468;-70
2022/04/13 06:34:20;;;;;;;11.67;8.10;;;10.60;99.90;;;;;;5003006;28;20575;-71
2022/04/13 06:37:08;;;;;;;8.83;7.93;;;10.60;99.90;;;;;;5002793;28;20530;-70
2022/04/13 06:39:56;;;;;;;8.87;7.97;;;10.70;99.90;;;;;;5012569;28;20496;-70
2022/04/13 06:42:45;;;;;;;8.80;7.90;;;10.70;99.90;;;;;;5003862;28;20570;-70
2022/04/13 06:45:36;;;;;;;9.60;7.63;;;10.70;99.90;;;;;;5002839;28;21101;-71
2022/04/13 06:48:24;;;;;;;8.60;7.27;;;10.80;99.90;;;;;;5003228;28;20545;-70
2022/04/13 06:51:13;;;;;;;10.00;7.37;;;10.80;99.90;;;;;;5002033;28;20559;-70
2022/04/13 06:54:01;;;;;;;8.80;7.63;;;10.90;99.90;;;;;;5005827;28;21082;-70
2022/04/13 06:56:49;;;;;;;8.77;7.87;;;10.90;99.90;;;;;;5002757;28;20591;-71
2022/04/13 06:59:38;;;;;;;11.03;8.27;;;11.00;99.90;;;;;;5004921;28;20556;-72
2022/04/13 07:02:28;;;;;;;9.80;8.23;;;11.00;99.90;;;;;;5000570;28;20659;-70
2022/04/13 07:05:17;;;;;;;10.50;8.80;;;11.00;99.90;;;;;;5004124;28;20957;-70
2022/04/13 07:08:06;;;;;;;8.93;8.03;;;11.10;99.90;;;;;;5003024;28;20480;-71
2022/04/13 07:10:54;;;;;;;8.80;7.70;;;11.10;99.90;;;;;;4990319;28;21110;-70
2022/04/13 07:13:43;;;;;;;10.83;8.57;;;11.20;99.90;;;;;;5001856;28;20477;-70
2022/04/13 07:16:31;;;;;;;8.87;7.93;;;11.30;99.90;;;;;;5001885;28;21007;-70
2022/04/13 07:19:20;;;;;;;8.90;8.00;;;11.30;99.90;;;;;;4992436;28;20535;-71
2022/04/13 07:22:08;;;;;;;11.83;8.57;;;11.30;99.90;;;;;;4995597;28;20488;-70
2022/04/13 07:25:01;;;;;;;9.60;8.37;;;11.30;99.90;;;;;;5002656;28;20493;-70
2022/04/13 07:27:50;;;;;;;9.70;8.70;;;11.40;99.90;;;;;;4997685;28;20492;-71
2022/04/13 07:30:38;;;;;;;9.47;8.47;;;11.40;99.90;;;;;;5000580;28;20525;-70
2022/04/13 07:33:26;;;;;;;10.30;8.90;;;11.40;99.90;;;;;;5000335;28;20571;-70
2022/04/13 07:36:15;;;;;;;9.53;8.63;;;11.50;99.90;;;;;;4998932;28;20534;-70
2022/04/13 07:39:04;;;;;;;8.73;7.83;;;11.50;99.90;;;;;;5001230;28;20600;-72
2022/04/13 07:41:52;;;;;;;10.43;8.60;;;11.60;99.90;;;;;;5004707;28;20495;-71
2022/04/13 07:44:40;;;;;;;11.10;8.47;;;11.70;99.90;;;;;;5002501;28;20991;-71
2022/04/13 07:47:46;;;;;;;9.70;8.80;;;11.70;99.90;;;;;;5004728;28;20602;-70
2022/04/13 07:50:34;;;;;;;10.17;8.60;;;11.80;99.90;;;;;;5000968;28;20511;-71
2022/04/13 07:53:24;;;;;;;10.63;9.63;;;11.90;99.90;;;;;;4999352;28;21864;-70
2022/04/13 07:56:14;;;;;;;9.60;8.60;;;11.90;99.90;;;;;;5000541;28;20464;-71
2022/04/13 07:59:03;;;;;;;9.80;8.80;;;12.00;99.90;;;;;;4998749;28;20567;-70
2022/04/13 08:01:53;;;;;;;10.43;9.10;;;12.10;99.90;;;;;;4999992;28;20473;-70
2022/04/13 08:04:42;;;;;;;9.20;8.23;;;12.20;99.90;;;;;;4996372;28;20943;-70
2022/04/13 08:07:30;;;;;;;9.63;8.73;;;12.30;99.90;;;;;;5000605;28;20611;-70
2022/04/13 08:10:19;;;;;;;10.33;8.67;;;12.30;99.90;;;;;;5003323;28;20538;-70
2022/04/13 08:13:10;;;;;;;11.87;9.20;;;12.40;99.90;;;;;;5000415;28;20504;-71
2022/04/13 08:15:58;;;;;;;9.43;8.27;;;12.50;99.90;;;;;;5002884;28;20998;-71
2022/04/13 08:18:47;;;;;;;9.23;8.30;;;12.60;99.90;;;;;;4990923;28;20525;-71
2022/04/13 08:21:37;;;;;;;10.63;8.70;;;12.70;99.90;;;;;;5000455;28;20492;-71
2022/04/13 08:24:26;;;;;;;9.80;8.80;;;12.80;99.90;;;;;;4994730;28;20559;-71
2022/04/13 08:27:15;;;;;;;11.53;8.10;;;12.90;99.90;;;;;;4995123;28;20456;-71
2022/04/13 08:30:04;;;;;;;12.63;9.53;;;13.00;99.90;;;;;;4997824;28;20611;-71
2022/04/13 08:32:52;;;;;;;10.20;8.93;;;13.10;99.90;;;;;;4999422;28;20468;-69
2022/04/13 08:35:41;;;;;;;10.17;9.10;;;13.20;99.90;;;;;;5010703;28;20454;-69
2022/04/13 08:38:29;;;;;;;8.90;8.00;;;13.30;99.90;;;;;;5000074;28;20472;-70
2022/04/13 08:41:21;;;;;;;11.07;9.93;;;13.30;99.90;;;;;;4999659;28;20503;-70
2022/04/13 08:44:16;;;;;;;9.70;8.70;;;13.40;99.90;;;;;;5003777;28;20493;-70
2022/04/13 08:47:08;;;;;;;10.30;8.90;;;13.40;99.90;;;;;;4998748;28;20460;-70
2022/04/13 08:49:57;;;;;;;12.10;9.33;;;13.50;99.90;;;;;;4998610;28;20457;-71
2022/04/13 08:52:54;;;;;;;9.87;8.87;;;13.50;99.90;;;;;;4997137;28;20652;-70
2022/04/13 08:55:50;;;;;;;9.27;8.27;;;13.50;99.90;;;;;;4999777;28;20564;-70
2022/04/13 08:58:46;;;;;;;10.80;8.90;;;13.60;99.90;;;;;;5002436;28;22266;-71
2022/04/13 09:01:42;;;;;;;10.03;8.77;;;13.70;99.90;;;;;;4998821;28;20457;-70
2022/04/13 09:04:32;;;;;;;9.97;9.03;;;13.80;99.90;;;;;;4999841;28;20699;-70
2022/04/13 09:07:21;;;;;;;11.53;9.50;;;13.80;99.90;;;;;;5000155;28;20912;-70
2022/04/13 09:10:16;;;;;;;9.73;8.73;;;14.00;99.90;;;;;;5003059;28;20559;-70
2022/04/13 09:13:08;;;;;;;15.37;9.73;;;14.00;99.90;;;;;;5000280;28;20622;-71
2022/04/13 09:15:58;;;;;;;9.77;8.77;;;14.10;99.90;;;;;;5000084;28;20490;-70
2022/04/13 09:18:47;;;;;;;10.87;9.73;;;14.10;99.90;;;;;;5000520;28;20487;-71
2022/04/13 09:21:36;;;;;;;10.70;8.80;;;14.20;99.90;;;;;;5002923;28;20634;-71
2022/04/13 09:24:27;;;;;;;16.23;9.63;;;14.30;99.90;;;;;;5005281;28;20564;-71
2022/04/13 09:27:15;;;;;;;10.83;8.90;;;14.40;99.90;;;;;;5004837;28;20492;-70
2022/04/13 09:30:06;;;;;;;14.03;10.20;;;14.60;99.90;;;;;;5006018;28;20599;-71
2022/04/13 09:32:55;;;;;;;11.10;9.70;;;14.70;99.90;;;;;;5002822;28;20565;-70
2022/04/13 09:35:45;;;;;;;12.07;9.77;;;14.70;99.90;;;;;;5001761;28;20565;-71
2022/04/13 09:38:34;;;;;;;16.53;9.67;;;14.80;99.90;;;;;;5005302;28;20476;-71
2022/04/13 09:41:33;;;;;;;10.50;9.30;;;15.00;99.90;;;;;;5001100;28;20534;-70
2022/04/13 09:44:21;;;;;;;12.50;10.83;;;15.00;99.90;;;;;;5000576;28;20866;-71
2022/04/13 09:47:11;;;;;;;11.47;10.00;;;15.10;99.90;;;;;;4997994;28;20630;-71
2022/04/13 09:50:00;;;;;;;9.93;8.93;;;15.20;99.90;;;;;;5005543;28;20659;-71
2022/04/13 09:52:53;;;;;;;10.67;9.67;;;15.30;99.90;;;;;;5002246;28;20493;-71
2022/04/13 09:55:42;;;;;;;12.93;9.17;;;15.40;99.90;;;;;;5004940;28;20682;-71
2022/04/13 09:58:30;;;;;;;10.87;9.60;;;15.50;99.90;;;;;;4989826;28;21161;-71
2022/04/13 10:01:20;;;;;;;11.90;9.10;;;15.70;99.90;;;;;;4998021;28;20452;-70
2022/04/13 10:04:08;;;;;;;10.23;9.00;;;15.80;99.90;;;;;;5005116;28;20790;-70
2022/04/13 10:07:16;;;;;;;11.13;10.03;;;15.80;99.90;;;;;;5001794;28;20535;-71
2022/04/13 10:10:22;;;;;;;12.10;9.57;;;16.00;99.90;;;;;;5004788;28;20845;-71
2022/04/13 10:13:31;;;;;;;14.53;10.07;;;16.00;99.90;;;;;;5003694;28;20984;-71
2022/04/13 10:16:20;;;;;;;10.50;9.43;;;16.20;99.90;;;;;;5003755;28;20456;-71
2022/04/13 10:19:09;;;;;;;11.60;10.40;;;16.30;99.90;;;;;;5002126;28;20632;-71
2022/04/13 10:21:59;;;;;;;13.53;10.80;;;16.30;99.90;;;;;;5003675;28;20578;-71
2022/04/13 10:24:48;;;;;;;16.00;11.40;;;16.40;99.90;;;;;;5002179;28;20487;-71
2022/04/13 10:27:52;;;;;;;12.90;10.30;;;16.50;99.90;;;;;;5002439;28;20470;-72
2022/04/13 10:30:42;;;;;;;13.50;10.27;;;16.50;99.90;;;;;;5001954;28;20579;-71
2022/04/13 10:33:31;;;;;;;14.37;11.00;;;16.60;99.90;;;;;;5006068;28;20567;-71
2022/04/13 10:36:21;;;;;;;13.73;11.10;;;16.70;99.90;;;;;;5004411;28;20496;-71
2022/04/13 10:39:09;;;;;;;11.40;9.80;;;16.80;99.90;;;;;;5001561;28;20563;-71
2022/04/13 10:41:58;;;;;;;12.70;11.40;;;16.90;99.90;;;;;;5003997;28;20542;-72
2022/04/13 10:44:50;;;;;;;13.13;10.37;;;17.00;99.90;;;;;;5001139;28;21008;-71
2022/04/13 10:47:50;;;;;;;13.97;10.10;;;17.10;99.90;;;;;;5003137;28;20545;-72
2022/04/13 10:50:44;;;;;;;11.77;9.90;;;17.20;99.90;;;;;;4999632;28;20610;-71
2022/04/13 10:53:41;;;;;;;12.23;10.17;;;17.30;99.90;;;;;;4997802;28;20480;-71
2022/04/13 10:56:33;;;;;;;14.10;10.40;;;17.50;99.90;;;;;;5001653;28;20483;-72
2022/04/13 10:59:30;;;;;;;13.13;10.47;;;17.70;99.90;;;;;;5000423;28;20480;-72
2022/04/13 11:02:29;;;;;;;16.63;11.07;;;17.80;99.90;;;;;;5000776;28;20468;-72
2022/04/13 11:05:18;;;;;;;15.53;11.63;;;18.00;99.90;;;;;;5001128;28;20474;-72
2022/04/13 11:08:17;;;;;;;13.53;11.40;;;18.10;99.90;;;;;;5000429;28;20530;-73
2022/04/13 11:11:06;;;;;;;17.37;12.13;;;18.20;99.90;;;;;;5001310;28;20467;-71
2022/04/13 11:13:54;;;;;;;17.03;11.87;;;18.30;99.90;;;;;;5001737;28;21013;-72
2022/04/13 11:16:43;;;;;;;13.80;11.30;;;18.40;99.90;;;;;;4997967;28;20955;-71
2022/04/13 11:19:32;;;;;;;14.73;11.37;;;18.50;99.90;;;;;;5001689;28;20492;-72
2022/04/13 11:22:20;;;;;;;13.77;10.33;;;18.70;99.90;;;;;;4993528;28;21004;-72
2022/04/13 11:25:09;;;;;;;15.97;11.70;;;18.90;99.90;;;;;;4995447;28;20484;-72
2022/04/13 11:27:58;;;;;;;15.03;12.33;;;19.10;99.90;;;;;;4997707;28;20559;-72
2022/04/13 11:31:06;;;;;;;15.37;12.07;;;19.30;99.90;;;;;;4997555;28;20469;-72
2022/04/13 11:33:57;;;;;;;15.53;12.17;;;19.40;99.90;;;;;;4996459;28;20486;-72
2022/04/13 11:36:52;;;;;;;13.17;10.73;;;19.50;99.90;;;;;;4996396;28;20781;-72
2022/04/13 11:39:51;;;;;;;15.47;12.23;;;19.70;99.90;;;;;;4992991;28;20480;-74
2022/04/13 11:43:01;;;;;;;14.60;11.90;;;19.80;99.90;;;;;;4997620;28;20840;-72
2022/04/13 11:45:54;;;;;;;16.80;11.57;;;20.00;99.90;;;;;;5000640;28;20479;-71
2022/04/13 11:48:42;;;;;;;18.23;12.43;;;20.30;99.90;;;;;;4998430;28;20566;-72
2022/04/13 11:51:31;;;;;;;14.20;11.70;;;20.40;99.90;;;;;;5001027;28;20603;-71
2022/04/13 11:54:45;;;;;;;15.17;12.70;;;20.60;99.90;;;;;;5000277;28;20498;-70
2022/04/13 11:57:51;;;;;;;14.90;11.67;;;20.80;99.90;;;;;;4995391;28;20974;-72
2022/04/13 12:00:41;;;;;;;15.53;12.07;;;20.90;99.90;;;;;;5000609;28;20927;-73
2022/04/13 12:03:31;;;;;;;16.20;12.33;;;21.00;99.90;;;;;;4999293;28;20936;-72
2022/04/13 12:06:26;;;;;;;14.27;11.90;;;21.10;99.90;;;;;;5001740;28;20449;-73
2022/04/13 12:09:15;;;;;;;15.60;12.20;;;21.10;99.90;;;;;;4997735;28;20510;-69
2022/04/13 12:12:05;;;;;;;14.37;12.70;;;21.20;99.90;;;;;;5003457;28;20934;-72
2022/04/13 12:14:56;;;;;;;15.07;13.10;;;21.30;99.90;;;;;;4975639;28;20517;-71
2022/04/13 12:17:45;;;;;;;17.70;12.47;;;21.40;99.90;;;;;;4979500;28;20553;-71
2022/04/13 12:20:34;;;;;;;16.80;13.03;;;21.60;99.90;;;;;;4981875;28;20473;-71
2022/04/13 12:23:25;;;;;;;15.23;11.63;;;21.70;99.90;;;;;;4981359;28;20498;-72
2022/04/13 12:26:13;;;;;;;18.03;12.23;;;21.90;99.90;;;;;;4982240;28;20520;-72
2022/04/13 12:29:11;;;;;;;17.77;13.57;;;22.00;99.90;;;;;;4976099;28;20485;-72
2022/04/13 12:32:00;;;;;;;13.77;11.77;;;22.10;99.90;;;;;;4977351;28;20466;-72
2022/04/13 12:34:58;;;;;;;17.30;12.60;;;22.20;99.90;;;;;;4996777;28;20468;-72
2022/04/13 12:37:51;;;;;;;18.13;12.37;;;22.30;99.90;;;;;;4992264;28;20547;-72
2022/04/13 12:40:40;;;;;;;17.27;11.50;;;22.50;99.90;;;;;;4994964;28;20465;-72
2022/04/13 12:43:29;;;;;;;14.00;11.50;;;22.60;99.90;;;;;;4993568;28;20564;-71
2022/04/13 12:46:20;;;;;;;12.90;10.87;;;22.70;99.90;;;;;;4993807;28;20878;-72
2022/04/13 12:49:17;;;;;;;14.17;10.13;;;22.90;99.90;;;;;;4989344;28;20915;-72
2022/04/13 12:52:07;;;;;;;14.93;10.80;;;23.00;99.90;;;;;;4983369;28;20587;-71
2022/04/13 12:55:00;;;;;;;15.90;11.37;;;23.10;99.90;;;;;;4993992;28;20472;-72
2022/04/13 12:57:48;;;;;;;12.67;9.80;;;23.20;99.90;;;;;;4998574;28;20472;-72
2022/04/13 13:00:51;;;;;;;11.43;8.70;;;23.30;99.90;;;;;;4999664;28;20508;-72
2022/04/13 13:03:41;;;;;;;16.60;10.40;;;23.40;99.90;;;;;;4996545;28;20511;-73
2022/04/13 13:06:32;;;;;;;12.93;10.83;;;23.50;99.90;;;;;;4995101;28;20526;-73
2022/04/13 13:09:22;;;;;;;16.23;10.60;;;23.60;99.90;;;;;;4995458;28;20476;-73
2022/04/13 13:12:15;;;;;;;11.73;10.50;;;23.60;99.90;;;;;;4995517;28;20480;-72
2022/04/13 13:15:03;;;;;;;11.70;10.27;;;23.60;99.90;;;;;;4998418;28;20449;-72
2022/04/13 13:17:51;;;;;;;11.93;10.03;;;23.60;99.90;;;;;;5001244;28;20476;-73
2022/04/13 13:20:55;;;;;;;12.33;9.63;;;23.60;99.90;;;;;;4997958;28;20493;-72
2022/04/13 13:23:49;;;;;;;10.70;8.93;;;23.50;99.90;;;;;;4992985;28;20554;-72
2022/04/13 13:26:37;;;;;;;11.93;10.67;;;23.40;99.90;;;;;;4991545;28;20472;-73
2022/04/13 13:29:27;;;;;;;11.60;10.13;;;23.30;99.90;;;;;;4993819;28;20479;-72
2022/04/13 13:32:17;;;;;;;10.77;9.10;;;23.30;99.90;;;;;;4995880;28;20503;-72
2022/04/13 13:35:07;;;;;;;11.53;8.93;;;23.60;99.90;;;;;;4991440;28;20535;-72
2022/04/13 13:38:05;;;;;;;11.50;10.30;;;23.80;99.90;;;;;;4993458;28;20570;-72
2022/04/13 13:40:54;;;;;;;14.40;11.60;;;24.20;99.90;;;;;;5002669;28;20463;-72
2022/04/13 13:43:42;;;;;;;13.43;11.60;;;24.60;99.90;;;;;;4999428;28;20480;-72
2022/04/13 13:46:30;;;;;;;12.60;11.40;;;24.80;99.90;;;;;;4999180;28;20479;-72
2022/04/13 13:49:18;;;;;;;11.77;10.57;;;25.10;99.90;;;;;;5003307;28;20567;-71
2022/04/13 13:52:08;;;;;;;11.10;9.90;;;25.30;99.90;;;;;;5003291;28;20480;-71
2022/04/13 13:54:57;;;;;;;10.50;9.13;;;25.60;99.90;;;;;;5000799;28;20520;-70
2022/04/13 13:57:45;;;;;;;11.20;9.40;;;25.70;99.90;;;;;;5002382;28;21285;-70
2022/04/13 14:00:34;;;;;;;11.73;10.10;;;25.80;99.90;;;;;;4998195;28;20960;-71
2022/04/13 14:03:23;;;;;;;14.53;11.00;;;25.60;99.90;;;;;;4992240;28;20522;-71
2022/04/13 14:06:13;;;;;;;13.47;11.60;;;25.50;99.90;;;;;;4996443;28;20445;-71
2022/04/13 14:09:03;;;;;;;11.57;10.40;;;25.40;99.90;;;;;;4995155;28;22275;-73
2022/04/13 14:11:53;;;;;;;13.47;9.80;;;25.50;99.90;;;;;;4998786;28;21032;-72
2022/04/13 14:14:41;;;;;;;12.10;10.80;;;25.50;99.90;;;;;;4982401;28;20725;-74
2022/04/13 14:17:29;;;;;;;13.37;11.53;;;25.30;99.90;;;;;;4994231;28;20956;-72
2022/04/13 14:20:19;;;;;;;12.80;11.50;;;24.90;99.90;;;;;;5002937;28;20456;-72
2022/04/13 14:23:09;;;;;;;11.97;10.50;;;24.60;99.90;;;;;;5000780;28;20543;-73
2022/04/13 14:25:57;;;;;;;11.80;10.60;;;24.40;99.90;;;;;;5001631;28;20449;-73
2022/04/13 14:28:46;;;;;;;11.90;10.80;;;24.20;99.90;;;;;;5005724;28;20830;-73
2022/04/13 14:31:34;;;;;;;10.93;9.93;;;24.10;99.90;;;;;;5001438;28;20509;-72
2022/04/13 14:34:23;;;;;;;13.67;10.77;;;24.00;99.90;;;;;;5005001;28;20480;-72
2022/04/13 14:37:11;;;;;;;11.43;10.17;;;23.90;99.90;;;;;;5005718;28;20472;-73
2022/04/13 14:39:59;;;;;;;12.83;10.83;;;23.80;99.90;;;;;;5004192;28;20551;-73